Terminal Aerodrome Forecast
Issued by NWS Cleveland, OH

Home | Current Version | Previous Version | Graphics & Text | Print | Product List | Glossary On
Versions: 1 2 3 4 5 6 7 8 9 10 11 12 13 14 15 16 17 18 19 20 21 22 23 24 25
000
FTUS41 KCLE 240800 AAB
TAFMFD
TAF AMD
KMFD 240800Z 2408/2506 26004KT 6SM BR OVC008
      TEMPO 2408/2412 2SM BR OVC004
     FM241400 25010KT P6SM SCT008 OVC012
     FM241900 25010KT 4SM -DZ BR OVC006 PROB30 2502/2506 4SM
      -FZDZSN=

USA.gov is the U.S. government's official web portal to all federal, state and local government web resources and services.